sensor_id;sensor_type;location;lat;lon;timestamp;temperature;humidity
23079;DHT22;11707;50.830;4.364;2022-10-16T00:00:44;14.70;99.90
23079;DHT22;11707;50.830;4.364;2022-10-16T00:03:11;14.60;99.90
23079;DHT22;11707;50.830;4.364;2022-10-16T00:05:42;14.70;99.90
23079;DHT22;11707;50.830;4.364;2022-10-16T00:08:09;14.70;99.90
23079;DHT22;11707;50.830;4.364;2022-10-16T00:10:35;14.80;99.90
23079;DHT22;11707;50.830;4.364;2022-10-16T00:13:00;14.90;99.90
23079;DHT22;11707;50.830;4.364;2022-10-16T00:15:26;14.90;99.90
23079;DHT22;11707;50.830;4.364;2022-10-16T00:17:53;15.00;99.90
23079;DHT22;11707;50.830;4.364;2022-10-16T00:20:18;15.00;99.90
23079;DHT22;11707;50.830;4.364;2022-10-16T00:22:44;15.00;99.90
23079;DHT22;11707;50.830;4.364;2022-10-16T00:25:10;15.00;99.90
23079;DHT22;11707;50.830;4.364;2022-10-16T00:27:35;14.90;99.90
23079;DHT22;11707;50.830;4.364;2022-10-16T00:30:01;15.00;99.90
23079;DHT22;11707;50.830;4.364;2022-10-16T00:32:27;15.00;99.90
23079;DHT22;11707;50.830;4.364;2022-10-16T00:34:53;15.00;99.90
23079;DHT22;11707;50.830;4.364;2022-10-16T00:37:21;15.00;99.90
23079;DHT22;11707;50.830;4.364;2022-10-16T00:39:47;14.90;99.90
23079;DHT22;11707;50.830;4.364;2022-10-16T00:42:16;15.00;99.90
23079;DHT22;11707;50.830;4.364;2022-10-16T00:47:28;15.00;99.90
23079;DHT22;11707;50.830;4.364;2022-10-16T00:50:26;14.90;99.90
23079;DHT22;11707;50.830;4.364;2022-10-16T00:52:52;14.90;99.90
23079;DHT22;11707;50.830;4.364;2022-10-16T00:55:18;14.90;99.90
23079;DHT22;11707;50.830;4.364;2022-10-16T00:57:45;14.80;99.90
23079;DHT22;11707;50.830;4.364;2022-10-16T01:00:14;14.50;99.90
23079;DHT22;11707;50.830;4.364;2022-10-16T01:02:41;14.40;99.90
23079;DHT22;11707;50.830;4.364;2022-10-16T01:05:07;14.50;99.90
23079;DHT22;11707;50.830;4.364;2022-10-16T01:07:51;14.50;99.90
23079;DHT22;11707;50.830;4.364;2022-10-16T01:13:09;14.60;99.90
23079;DHT22;11707;50.830;4.364;2022-10-16T01:15:50;14.40;99.90
23079;DHT22;11707;50.830;4.364;2022-10-16T01:18:32;14.50;99.90
23079;DHT22;11707;50.830;4.364;2022-10-16T01:21:02;14.40;99.90
23079;DHT22;11707;50.830;4.364;2022-10-16T01:23:45;14.50;99.90
23079;DHT22;11707;50.830;4.364;2022-10-16T01:31:39;14.40;99.90
23079;DHT22;11707;50.830;4.364;2022-10-16T01:34:10;14.10;99.90
23079;DHT22;11707;50.830;4.364;2022-10-16T01:36:51;14.10;99.90
23079;DHT22;11707;50.830;4.364;2022-10-16T01:39:24;14.20;99.90
23079;DHT22;11707;50.830;4.364;2022-10-16T01:41:56;14.20;99.90
23079;DHT22;11707;50.830;4.364;2022-10-16T01:44:29;14.20;99.90
23079;DHT22;11707;50.830;4.364;2022-10-16T01:46:56;14.20;99.90
23079;DHT22;11707;50.830;4.364;2022-10-16T01:49:25;14.20;99.90
23079;DHT22;11707;50.830;4.364;2022-10-16T01:51:54;14.10;99.90
23079;DHT22;11707;50.830;4.364;2022-10-16T01:54:23;14.10;99.90
23079;DHT22;11707;50.830;4.364;2022-10-16T01:56:50;14.20;99.90
23079;DHT22;11707;50.830;4.364;2022-10-16T01:59:19;14.20;99.90
23079;DHT22;11707;50.830;4.364;2022-10-16T02:01:49;14.30;99.90
23079;DHT22;11707;50.830;4.364;2022-10-16T02:04:24;14.40;99.90
23079;DHT22;11707;50.830;4.364;2022-10-16T02:06:52;14.30;99.90
23079;DHT22;11707;50.830;4.364;2022-10-16T02:09:18;14.30;99.90
23079;DHT22;11707;50.830;4.364;2022-10-16T02:11:44;14.40;99.90
23079;DHT22;11707;50.830;4.364;2022-10-16T02:14:10;14.20;99.90
23079;DHT22;11707;50.830;4.364;2022-10-16T02:16:44;14.10;99.90
23079;DHT22;11707;50.830;4.364;2022-10-16T02:19:12;14.10;99.90
23079;DHT22;11707;50.830;4.364;2022-10-16T02:21:56;14.10;99.90
23079;DHT22;11707;50.830;4.364;2022-10-16T02:24:47;14.10;99.90
23079;DHT22;11707;50.830;4.364;2022-10-16T02:29:56;14.20;99.90
23079;DHT22;11707;50.830;4.364;2022-10-16T02:32:27;14.10;99.90
23079;DHT22;11707;50.830;4.364;2022-10-16T02:34:56;14.20;99.90
23079;DHT22;11707;50.830;4.364;2022-10-16T02:37:23;14.20;99.90
23079;DHT22;11707;50.830;4.364;2022-10-16T02:39:50;14.20;99.90
23079;DHT22;11707;50.830;4.364;2022-10-16T02:42:17;14.30;99.90
23079;DHT22;11707;50.830;4.364;2022-10-16T02:44:43;14.20;99.90
23079;DHT22;11707;50.830;4.364;2022-10-16T02:47:09;14.10;99.90
23079;DHT22;11707;50.830;4.364;2022-10-16T02:49:34;14.10;99.90
23079;DHT22;11707;50.830;4.364;2022-10-16T02:52:00;14.10;99.90
23079;DHT22;11707;50.830;4.364;2022-10-16T02:54:26;14.20;99.90
23079;DHT22;11707;50.830;4.364;2022-10-16T02:56:52;14.30;99.90
23079;DHT22;11707;50.830;4.364;2022-10-16T02:59:17;14.30;99.90
23079;DHT22;11707;50.830;4.364;2022-10-16T03:01:43;14.30;99.90
23079;DHT22;11707;50.830;4.364;2022-10-16T03:04:09;14.30;99.90
23079;DHT22;11707;50.830;4.364;2022-10-16T03:06:34;14.20;99.90
23079;DHT22;11707;50.830;4.364;2022-10-16T03:09:00;14.10;99.90
23079;DHT22;11707;50.830;4.364;2022-10-16T03:11:26;14.20;99.90
23079;DHT22;11707;50.830;4.364;2022-10-16T03:13:51;14.30;99.90
23079;DHT22;11707;50.830;4.364;2022-10-16T03:16:17;14.40;99.90
23079;DHT22;11707;50.830;4.364;2022-10-16T03:18:43;14.40;99.90
23079;DHT22;11707;50.830;4.364;2022-10-16T03:21:08;14.40;99.90
23079;DHT22;11707;50.830;4.364;2022-10-16T03:23:34;14.40;99.90
23079;DHT22;11707;50.830;4.364;2022-10-16T03:26:00;14.40;99.90
23079;DHT22;11707;50.830;4.364;2022-10-16T03:28:25;14.20;99.90
23079;DHT22;11707;50.830;4.364;2022-10-16T03:30:51;14.20;99.90
23079;DHT22;11707;50.830;4.364;2022-10-16T03:33:16;14.30;99.90
23079;DHT22;11707;50.830;4.364;2022-10-16T03:35:42;14.30;99.90
23079;DHT22;11707;50.830;4.364;2022-10-16T03:38:08;14.40;99.90
23079;DHT22;11707;50.830;4.364;2022-10-16T03:40:33;14.10;99.90
23079;DHT22;11707;50.830;4.364;2022-10-16T03:42:59;14.10;99.90
23079;DHT22;11707;50.830;4.364;2022-10-16T03:45:25;14.00;99.90
23079;DHT22;11707;50.830;4.364;2022-10-16T03:47:51;13.90;99.90
23079;DHT22;11707;50.830;4.364;2022-10-16T03:50:17;13.90;99.90
23079;DHT22;11707;50.830;4.364;2022-10-16T03:52:42;14.00;99.90
23079;DHT22;11707;50.830;4.364;2022-10-16T03:55:08;14.10;99.90
23079;DHT22;11707;50.830;4.364;2022-10-16T03:57:34;14.00;99.90
23079;DHT22;11707;50.830;4.364;2022-10-16T03:59:59;14.10;99.90
23079;DHT22;11707;50.830;4.364;2022-10-16T04:02:25;14.10;99.90
23079;DHT22;11707;50.830;4.364;2022-10-16T04:04:51;14.00;99.90
23079;DHT22;11707;50.830;4.364;2022-10-16T04:07:17;14.20;99.90
23079;DHT22;11707;50.830;4.364;2022-10-16T04:09:42;14.20;99.90
23079;DHT22;11707;50.830;4.364;2022-10-16T04:12:08;14.20;99.90
23079;DHT22;11707;50.830;4.364;2022-10-16T04:14:34;14.30;99.90
23079;DHT22;11707;50.830;4.364;2022-10-16T04:16:59;14.30;99.90
23079;DHT22;11707;50.830;4.364;2022-10-16T04:19:25;14.30;99.90
23079;DHT22;11707;50.830;4.364;2022-10-16T04:21:51;14.30;99.90
23079;DHT22;11707;50.830;4.364;2022-10-16T04:24:17;14.30;99.90
23079;DHT22;11707;50.830;4.364;2022-10-16T04:26:43;14.30;99.90
23079;DHT22;11707;50.830;4.364;2022-10-16T04:29:08;14.30;99.90
23079;DHT22;11707;50.830;4.364;2022-10-16T04:31:34;14.30;99.90
23079;DHT22;11707;50.830;4.364;2022-10-16T04:34:00;14.40;99.90
23079;DHT22;11707;50.830;4.364;2022-10-16T04:36:25;14.50;99.90
23079;DHT22;11707;50.830;4.364;2022-10-16T04:38:51;14.50;99.90
23079;DHT22;11707;50.830;4.364;2022-10-16T04:41:16;14.50;99.90
23079;DHT22;11707;50.830;4.364;2022-10-16T04:43:42;14.50;99.90
23079;DHT22;11707;50.830;4.364;2022-10-16T04:46:08;14.30;99.90
23079;DHT22;11707;50.830;4.364;2022-10-16T04:48:35;14.30;99.90
23079;DHT22;11707;50.830;4.364;2022-10-16T04:51:01;14.30;99.90
23079;DHT22;11707;50.830;4.364;2022-10-16T04:53:27;14.30;99.90
23079;DHT22;11707;50.830;4.364;2022-10-16T04:55:52;14.40;99.90
23079;DHT22;11707;50.830;4.364;2022-10-16T04:58:18;14.40;99.90
23079;DHT22;11707;50.830;4.364;2022-10-16T05:00:44;14.40;99.90
23079;DHT22;11707;50.830;4.364;2022-10-16T05:03:12;14.40;99.90
23079;DHT22;11707;50.830;4.364;2022-10-16T05:05:42;14.20;99.90
23079;DHT22;11707;50.830;4.364;2022-10-16T05:08:10;14.20;99.90
23079;DHT22;11707;50.830;4.364;2022-10-16T05:10:35;14.20;99.90
23079;DHT22;11707;50.830;4.364;2022-10-16T05:13:01;14.20;99.90
23079;DHT22;11707;50.830;4.364;2022-10-16T05:15:27;14.20;99.90
23079;DHT22;11707;50.830;4.364;2022-10-16T05:17:53;14.20;99.90
23079;DHT22;11707;50.830;4.364;2022-10-16T05:20:19;14.20;99.90
23079;DHT22;11707;50.830;4.364;2022-10-16T05:22:45;14.20;99.90
23079;DHT22;11707;50.830;4.364;2022-10-16T05:25:10;14.20;99.90
23079;DHT22;11707;50.830;4.364;2022-10-16T05:27:36;14.20;99.90
23079;DHT22;11707;50.830;4.364;2022-10-16T05:30:02;14.00;99.90
23079;DHT22;11707;50.830;4.364;2022-10-16T05:32:28;13.90;99.90
23079;DHT22;11707;50.830;4.364;2022-10-16T05:34:53;13.90;99.90
23079;DHT22;11707;50.830;4.364;2022-10-16T05:37:19;14.00;99.90
23079;DHT22;11707;50.830;4.364;2022-10-16T05:39:45;14.00;99.90
23079;DHT22;11707;50.830;4.364;2022-10-16T05:42:10;14.00;99.90
23079;DHT22;11707;50.830;4.364;2022-10-16T05:44:36;14.00;99.90
23079;DHT22;11707;50.830;4.364;2022-10-16T05:47:02;14.00;99.90
23079;DHT22;11707;50.830;4.364;2022-10-16T05:49:27;14.10;99.90
23079;DHT22;11707;50.830;4.364;2022-10-16T05:51:53;14.20;99.90
23079;DHT22;11707;50.830;4.364;2022-10-16T05:54:19;14.20;99.90
23079;DHT22;11707;50.830;4.364;2022-10-16T05:56:44;14.10;99.90
23079;DHT22;11707;50.830;4.364;2022-10-16T05:59:10;14.00;99.90
23079;DHT22;11707;50.830;4.364;2022-10-16T06:01:36;14.00;99.90
23079;DHT22;11707;50.830;4.364;2022-10-16T06:04:02;14.10;99.90
23079;DHT22;11707;50.830;4.364;2022-10-16T06:06:28;13.90;99.90
23079;DHT22;11707;50.830;4.364;2022-10-16T06:08:55;13.90;99.90
23079;DHT22;11707;50.830;4.364;2022-10-16T06:11:23;13.90;99.90
23079;DHT22;11707;50.830;4.364;2022-10-16T06:13:51;14.00;99.90
23079;DHT22;11707;50.830;4.364;2022-10-16T06:16:16;14.10;99.90
23079;DHT22;11707;50.830;4.364;2022-10-16T06:18:42;14.10;99.90
23079;DHT22;11707;50.830;4.364;2022-10-16T06:21:11;14.20;99.90
23079;DHT22;11707;50.830;4.364;2022-10-16T06:23:37;14.20;99.90
23079;DHT22;11707;50.830;4.364;2022-10-16T06:26:09;14.20;99.90
23079;DHT22;11707;50.830;4.364;2022-10-16T06:28:36;14.30;99.90
23079;DHT22;11707;50.830;4.364;2022-10-16T06:31:03;14.20;99.90
23079;DHT22;11707;50.830;4.364;2022-10-16T06:33:29;14.10;99.90
23079;DHT22;11707;50.830;4.364;2022-10-16T06:36:10;14.00;99.90
23079;DHT22;11707;50.830;4.364;2022-10-16T06:38:36;14.10;99.90
23079;DHT22;11707;50.830;4.364;2022-10-16T06:41:03;14.10;99.90
23079;DHT22;11707;50.830;4.364;2022-10-16T06:43:29;14.20;99.90
23079;DHT22;11707;50.830;4.364;2022-10-16T06:45:59;14.20;99.90
23079;DHT22;11707;50.830;4.364;2022-10-16T06:48:25;14.30;99.90
23079;DHT22;11707;50.830;4.364;2022-10-16T06:50:59;14.40;99.90
23079;DHT22;11707;50.830;4.364;2022-10-16T06:53:26;14.40;99.90
23079;DHT22;11707;50.830;4.364;2022-10-16T06:55:51;14.50;99.90
23079;DHT22;11707;50.830;4.364;2022-10-16T06:58:17;14.50;99.90
23079;DHT22;11707;50.830;4.364;2022-10-16T07:00:43;14.40;99.90
23079;DHT22;11707;50.830;4.364;2022-10-16T07:03:09;14.50;99.90
23079;DHT22;11707;50.830;4.364;2022-10-16T07:05:41;14.30;99.90
23079;DHT22;11707;50.830;4.364;2022-10-16T07:08:07;14.40;99.90
23079;DHT22;11707;50.830;4.364;2022-10-16T07:10:34;14.40;99.90
23079;DHT22;11707;50.830;4.364;2022-10-16T07:13:00;14.50;99.90
23079;DHT22;11707;50.830;4.364;2022-10-16T07:15:26;14.50;99.90
23079;DHT22;11707;50.830;4.364;2022-10-16T07:17:51;14.60;99.90
23079;DHT22;11707;50.830;4.364;2022-10-16T07:20:17;14.50;99.90
23079;DHT22;11707;50.830;4.364;2022-10-16T07:22:43;14.40;99.90
23079;DHT22;11707;50.830;4.364;2022-10-16T07:25:09;14.40;99.90
23079;DHT22;11707;50.830;4.364;2022-10-16T07:27:35;14.30;99.90
23079;DHT22;11707;50.830;4.364;2022-10-16T07:30:00;14.30;99.90
23079;DHT22;11707;50.830;4.364;2022-10-16T07:32:26;14.40;99.90
23079;DHT22;11707;50.830;4.364;2022-10-16T07:34:53;14.50;99.90
23079;DHT22;11707;50.830;4.364;2022-10-16T07:37:19;14.60;99.90
23079;DHT22;11707;50.830;4.364;2022-10-16T07:39:44;14.60;99.90
23079;DHT22;11707;50.830;4.364;2022-10-16T07:42:10;14.50;99.90
23079;DHT22;11707;50.830;4.364;2022-10-16T07:44:36;14.60;99.90
23079;DHT22;11707;50.830;4.364;2022-10-16T07:47:01;14.60;99.90
23079;DHT22;11707;50.830;4.364;2022-10-16T07:49:28;14.70;99.90
23079;DHT22;11707;50.830;4.364;2022-10-16T07:51:53;14.60;99.90
23079;DHT22;11707;50.830;4.364;2022-10-16T07:54:19;14.60;99.90
23079;DHT22;11707;50.830;4.364;2022-10-16T07:56:46;14.70;99.90
23079;DHT22;11707;50.830;4.364;2022-10-16T07:59:12;14.60;99.90
23079;DHT22;11707;50.830;4.364;2022-10-16T08:01:37;14.60;99.90
23079;DHT22;11707;50.830;4.364;2022-10-16T08:04:03;14.60;99.90
23079;DHT22;11707;50.830;4.364;2022-10-16T08:06:29;14.60;99.90
23079;DHT22;11707;50.830;4.364;2022-10-16T08:08:57;14.60;99.90
23079;DHT22;11707;50.830;4.364;2022-10-16T08:11:25;14.70;99.90
23079;DHT22;11707;50.830;4.364;2022-10-16T08:13:51;15.00;99.90
23079;DHT22;11707;50.830;4.364;2022-10-16T08:16:17;15.10;99.90
23079;DHT22;11707;50.830;4.364;2022-10-16T08:18:43;15.30;99.90
23079;DHT22;11707;50.830;4.364;2022-10-16T08:21:14;15.40;99.90
23079;DHT22;11707;50.830;4.364;2022-10-16T08:23:40;15.20;99.90
23079;DHT22;11707;50.830;4.364;2022-10-16T08:26:07;15.40;99.90
23079;DHT22;11707;50.830;4.364;2022-10-16T08:28:34;15.60;99.90
23079;DHT22;11707;50.830;4.364;2022-10-16T08:31:11;15.70;99.90
23079;DHT22;11707;50.830;4.364;2022-10-16T08:33:38;15.70;99.90
23079;DHT22;11707;50.830;4.364;2022-10-16T08:36:05;15.80;99.90
23079;DHT22;11707;50.830;4.364;2022-10-16T08:38:32;15.80;99.90
23079;DHT22;11707;50.830;4.364;2022-10-16T08:46:21;15.70;99.90
23079;DHT22;11707;50.830;4.364;2022-10-16T08:48:53;15.70;99.90
23079;DHT22;11707;50.830;4.364;2022-10-16T08:51:31;15.60;99.90
23079;DHT22;11707;50.830;4.364;2022-10-16T08:54:01;15.80;99.90
23079;DHT22;11707;50.830;4.364;2022-10-16T08:56:28;15.90;99.90
23079;DHT22;11707;50.830;4.364;2022-10-16T08:58:54;15.90;99.90
23079;DHT22;11707;50.830;4.364;2022-10-16T09:01:22;16.00;99.90
23079;DHT22;11707;50.830;4.364;2022-10-16T09:04:18;16.10;99.90
23079;DHT22;11707;50.830;4.364;2022-10-16T09:07:17;16.00;99.90
23079;DHT22;11707;50.830;4.364;2022-10-16T09:09:54;16.10;99.90
23079;DHT22;11707;50.830;4.364;2022-10-16T09:15:07;16.20;99.90
23079;DHT22;11707;50.830;4.364;2022-10-16T09:23:26;16.40;99.90
23079;DHT22;11707;50.830;4.364;2022-10-16T09:25:53;16.70;99.90
23079;DHT22;11707;50.830;4.364;2022-10-16T09:28:19;16.90;99.90
23079;DHT22;11707;50.830;4.364;2022-10-16T09:30:46;17.10;99.90
23079;DHT22;11707;50.830;4.364;2022-10-16T09:33:15;17.30;99.90
23079;DHT22;11707;50.830;4.364;2022-10-16T09:35:45;17.30;99.90
23079;DHT22;11707;50.830;4.364;2022-10-16T09:38:33;17.40;99.90
23079;DHT22;11707;50.830;4.364;2022-10-16T09:41:12;17.50;99.90
23079;DHT22;11707;50.830;4.364;2022-10-16T09:44:05;17.50;99.90
23079;DHT22;11707;50.830;4.364;2022-10-16T09:46:36;17.70;99.90
23079;DHT22;11707;50.830;4.364;2022-10-16T09:49:21;17.60;99.90
23079;DHT22;11707;50.830;4.364;2022-10-16T09:51:48;17.70;99.90
23079;DHT22;11707;50.830;4.364;2022-10-16T09:54:16;17.50;99.90
23079;DHT22;11707;50.830;4.364;2022-10-16T09:56:42;17.50;99.90
23079;DHT22;11707;50.830;4.364;2022-10-16T09:59:19;17.30;99.90
23079;DHT22;11707;50.830;4.364;2022-10-16T10:01:51;17.40;99.90
23079;DHT22;11707;50.830;4.364;2022-10-16T10:04:19;17.40;99.90
23079;DHT22;11707;50.830;4.364;2022-10-16T10:06:53;17.50;99.90
23079;DHT22;11707;50.830;4.364;2022-10-16T10:09:28;17.40;99.90
23079;DHT22;11707;50.830;4.364;2022-10-16T10:11:59;17.30;99.90
23079;DHT22;11707;50.830;4.364;2022-10-16T10:14:31;17.20;99.90
23079;DHT22;11707;50.830;4.364;2022-10-16T10:17:10;17.30;99.90
23079;DHT22;11707;50.830;4.364;2022-10-16T10:22:23;17.70;99.90
23079;DHT22;11707;50.830;4.364;2022-10-16T10:42:08;18.70;99.90
23079;DHT22;11707;50.830;4.364;2022-10-16T10:45:11;19.10;99.90
23079;DHT22;11707;50.830;4.364;2022-10-16T10:48:06;19.50;99.90
23079;DHT22;11707;50.830;4.364;2022-10-16T11:01:21;19.30;99.90
23079;DHT22;11707;50.830;4.364;2022-10-16T11:06:24;19.10;99.90
23079;DHT22;11707;50.830;4.364;2022-10-16T11:08:55;18.70;99.90
23079;DHT22;11707;50.830;4.364;2022-10-16T11:11:47;18.70;99.90
23079;DHT22;11707;50.830;4.364;2022-10-16T11:14:24;18.60;99.90
23079;DHT22;11707;50.830;4.364;2022-10-16T11:17:13;18.80;99.90
23079;DHT22;11707;50.830;4.364;2022-10-16T11:25:49;19.20;99.90
23079;DHT22;11707;50.830;4.364;2022-10-16T11:33:32;19.00;99.90
23079;DHT22;11707;50.830;4.364;2022-10-16T11:36:26;19.00;99.90
23079;DHT22;11707;50.830;4.364;2022-10-16T11:39:02;18.80;99.90
23079;DHT22;11707;50.830;4.364;2022-10-16T11:41:49;18.80;99.90
23079;DHT22;11707;50.830;4.364;2022-10-16T11:47:23;19.30;99.90
23079;DHT22;11707;50.830;4.364;2022-10-16T11:50:22;19.10;99.90
23079;DHT22;11707;50.830;4.364;2022-10-16T11:53:07;19.20;99.90
23079;DHT22;11707;50.830;4.364;2022-10-16T11:55:39;19.20;99.90
23079;DHT22;11707;50.830;4.364;2022-10-16T12:06:21;19.40;99.90
23079;DHT22;11707;50.830;4.364;2022-10-16T12:08:51;19.70;99.90
23079;DHT22;11707;50.830;4.364;2022-10-16T12:13:52;20.00;99.90
23079;DHT22;11707;50.830;4.364;2022-10-16T12:16:28;20.10;99.90
23079;DHT22;11707;50.830;4.364;2022-10-16T12:19:13;20.10;99.90
23079;DHT22;11707;50.830;4.364;2022-10-16T12:21:39;20.10;99.90
23079;DHT22;11707;50.830;4.364;2022-10-16T12:24:06;19.60;99.90
23079;DHT22;11707;50.830;4.364;2022-10-16T12:26:46;19.50;99.90
23079;DHT22;11707;50.830;4.364;2022-10-16T12:29:36;19.60;99.90
23079;DHT22;11707;50.830;4.364;2022-10-16T12:32:02;19.30;99.90
23079;DHT22;11707;50.830;4.364;2022-10-16T12:34:38;19.60;99.90
23079;DHT22;11707;50.830;4.364;2022-10-16T12:39:35;19.30;99.90
23079;DHT22;11707;50.830;4.364;2022-10-16T12:44:51;19.80;99.90
23079;DHT22;11707;50.830;4.364;2022-10-16T12:49:58;19.50;99.90
23079;DHT22;11707;50.830;4.364;2022-10-16T12:52:44;19.50;99.90
23079;DHT22;11707;50.830;4.364;2022-10-16T12:55:16;19.50;99.90
23079;DHT22;11707;50.830;4.364;2022-10-16T13:01:03;19.60;99.90
23079;DHT22;11707;50.830;4.364;2022-10-16T13:06:40;19.60;99.90
23079;DHT22;11707;50.830;4.364;2022-10-16T13:09:22;19.60;99.90
23079;DHT22;11707;50.830;4.364;2022-10-16T13:23:25;19.50;99.90
23079;DHT22;11707;50.830;4.364;2022-10-16T13:28:42;19.80;99.90
23079;DHT22;11707;50.830;4.364;2022-10-16T13:31:26;19.80;99.90
23079;DHT22;11707;50.830;4.364;2022-10-16T13:33:55;19.90;99.90
23079;DHT22;11707;50.830;4.364;2022-10-16T13:36:34;20.30;99.90
23079;DHT22;11707;50.830;4.364;2022-10-16T13:39:19;20.90;99.90
23079;DHT22;11707;50.830;4.364;2022-10-16T13:41:57;21.10;99.90
23079;DHT22;11707;50.830;4.364;2022-10-16T13:44:24;20.40;99.90
23079;DHT22;11707;50.830;4.364;2022-10-16T13:47:02;20.20;99.90
23079;DHT22;11707;50.830;4.364;2022-10-16T13:49:29;20.30;99.90
23079;DHT22;11707;50.830;4.364;2022-10-16T13:51:59;20.20;99.90
23079;DHT22;11707;50.830;4.364;2022-10-16T13:54:26;19.80;99.90
23079;DHT22;11707;50.830;4.364;2022-10-16T13:56:54;19.80;99.90
23079;DHT22;11707;50.830;4.364;2022-10-16T13:59:34;19.90;99.90
23079;DHT22;11707;50.830;4.364;2022-10-16T14:02:00;19.80;99.90
23079;DHT22;11707;50.830;4.364;2022-10-16T14:04:32;19.80;99.90
23079;DHT22;11707;50.830;4.364;2022-10-16T14:06:58;19.90;99.90
23079;DHT22;11707;50.830;4.364;2022-10-16T14:09:27;20.10;99.90
23079;DHT22;11707;50.830;4.364;2022-10-16T14:11:59;20.30;99.90
23079;DHT22;11707;50.830;4.364;2022-10-16T14:14:29;20.10;99.90
23079;DHT22;11707;50.830;4.364;2022-10-16T14:16:56;20.00;99.90
23079;DHT22;11707;50.830;4.364;2022-10-16T14:19:25;19.80;99.90
23079;DHT22;11707;50.830;4.364;2022-10-16T14:21:52;19.90;99.90
23079;DHT22;11707;50.830;4.364;2022-10-16T14:24:47;20.00;99.90
23079;DHT22;11707;50.830;4.364;2022-10-16T14:27:33;19.80;99.90
23079;DHT22;11707;50.830;4.364;2022-10-16T14:32:34;19.90;99.90
23079;DHT22;11707;50.830;4.364;2022-10-16T14:35:00;19.80;99.90
23079;DHT22;11707;50.830;4.364;2022-10-16T14:37:27;20.00;99.90
23079;DHT22;11707;50.830;4.364;2022-10-16T14:39:55;19.80;99.90
23079;DHT22;11707;50.830;4.364;2022-10-16T14:42:23;19.80;99.90
23079;DHT22;11707;50.830;4.364;2022-10-16T14:44:51;19.60;99.90
23079;DHT22;11707;50.830;4.364;2022-10-16T14:47:23;19.50;99.90
23079;DHT22;11707;50.830;4.364;2022-10-16T14:49:52;19.40;99.90
23079;DHT22;11707;50.830;4.364;2022-10-16T14:52:20;19.30;99.90
23079;DHT22;11707;50.830;4.364;2022-10-16T14:54:49;19.20;99.90
23079;DHT22;11707;50.830;4.364;2022-10-16T14:57:20;19.30;99.90
23079;DHT22;11707;50.830;4.364;2022-10-16T14:59:47;19.50;99.90
23079;DHT22;11707;50.830;4.364;2022-10-16T15:02:19;19.40;99.90
23079;DHT22;11707;50.830;4.364;2022-10-16T15:04:46;19.30;99.90
23079;DHT22;11707;50.830;4.364;2022-10-16T15:07:12;19.30;99.90
23079;DHT22;11707;50.830;4.364;2022-10-16T15:09:38;19.10;99.90
23079;DHT22;11707;50.830;4.364;2022-10-16T15:12:04;19.20;99.90
23079;DHT22;11707;50.830;4.364;2022-10-16T15:14:30;19.20;99.90
23079;DHT22;11707;50.830;4.364;2022-10-16T15:16:57;19.40;99.90
23079;DHT22;11707;50.830;4.364;2022-10-16T15:19:23;19.50;99.90
23079;DHT22;11707;50.830;4.364;2022-10-16T15:21:48;19.40;99.90
23079;DHT22;11707;50.830;4.364;2022-10-16T15:24:15;19.20;99.90
23079;DHT22;11707;50.830;4.364;2022-10-16T15:26:41;19.00;99.90
23079;DHT22;11707;50.830;4.364;2022-10-16T15:29:08;19.00;99.90
23079;DHT22;11707;50.830;4.364;2022-10-16T15:31:34;19.30;99.90
23079;DHT22;11707;50.830;4.364;2022-10-16T15:34:00;19.30;99.90
23079;DHT22;11707;50.830;4.364;2022-10-16T15:36:35;19.00;99.90
23079;DHT22;11707;50.830;4.364;2022-10-16T15:39:03;19.00;99.90
23079;DHT22;11707;50.830;4.364;2022-10-16T15:41:29;19.00;99.90
23079;DHT22;11707;50.830;4.364;2022-10-16T15:43:55;19.00;99.90
23079;DHT22;11707;50.830;4.364;2022-10-16T15:46:22;19.10;99.90
23079;DHT22;11707;50.830;4.364;2022-10-16T15:48:49;19.30;99.90
23079;DHT22;11707;50.830;4.364;2022-10-16T15:51:16;19.30;99.90
23079;DHT22;11707;50.830;4.364;2022-10-16T15:53:42;19.10;99.90
23079;DHT22;11707;50.830;4.364;2022-10-16T15:56:10;19.00;99.90
23079;DHT22;11707;50.830;4.364;2022-10-16T15:58:36;19.10;99.90
23079;DHT22;11707;50.830;4.364;2022-10-16T16:01:02;19.20;99.90
23079;DHT22;11707;50.830;4.364;2022-10-16T16:03:31;19.40;99.90
23079;DHT22;11707;50.830;4.364;2022-10-16T16:05:58;19.30;99.90
23079;DHT22;11707;50.830;4.364;2022-10-16T16:08:28;19.00;99.90
23079;DHT22;11707;50.830;4.364;2022-10-16T16:11:09;18.90;99.90
23079;DHT22;11707;50.830;4.364;2022-10-16T16:13:35;18.90;99.90
23079;DHT22;11707;50.830;4.364;2022-10-16T16:16:09;18.90;99.90
23079;DHT22;11707;50.830;4.364;2022-10-16T16:18:36;18.70;99.90
23079;DHT22;11707;50.830;4.364;2022-10-16T16:21:03;18.60;99.90
23079;DHT22;11707;50.830;4.364;2022-10-16T16:23:29;18.50;99.90
23079;DHT22;11707;50.830;4.364;2022-10-16T16:26:22;18.70;99.90
23079;DHT22;11707;50.830;4.364;2022-10-16T16:28:52;18.60;99.90
23079;DHT22;11707;50.830;4.364;2022-10-16T16:31:45;18.60;99.90
23079;DHT22;11707;50.830;4.364;2022-10-16T16:34:13;18.70;99.90
23079;DHT22;11707;50.830;4.364;2022-10-16T16:36:39;18.70;99.90
23079;DHT22;11707;50.830;4.364;2022-10-16T16:39:06;18.60;99.90
23079;DHT22;11707;50.830;4.364;2022-10-16T16:41:33;18.60;99.90
23079;DHT22;11707;50.830;4.364;2022-10-16T16:44:05;18.80;99.90
23079;DHT22;11707;50.830;4.364;2022-10-16T16:46:32;18.60;99.90
23079;DHT22;11707;50.830;4.364;2022-10-16T16:48:59;18.40;99.90
23079;DHT22;11707;50.830;4.364;2022-10-16T16:51:25;18.30;99.90
23079;DHT22;11707;50.830;4.364;2022-10-16T16:53:53;18.30;99.90
23079;DHT22;11707;50.830;4.364;2022-10-16T16:56:21;18.40;99.90
23079;DHT22;11707;50.830;4.364;2022-10-16T16:58:52;18.50;99.90
23079;DHT22;11707;50.830;4.364;2022-10-16T17:01:19;18.70;99.90
23079;DHT22;11707;50.830;4.364;2022-10-16T17:03:46;18.90;99.90
23079;DHT22;11707;50.830;4.364;2022-10-16T17:06:15;18.70;99.90
23079;DHT22;11707;50.830;4.364;2022-10-16T17:08:41;18.10;99.90
23079;DHT22;11707;50.830;4.364;2022-10-16T17:11:12;17.80;99.90
23079;DHT22;11707;50.830;4.364;2022-10-16T17:13:38;17.80;99.90
23079;DHT22;11707;50.830;4.364;2022-10-16T17:16:05;17.80;99.90
23079;DHT22;11707;50.830;4.364;2022-10-16T17:18:32;17.60;99.90
23079;DHT22;11707;50.830;4.364;2022-10-16T17:21:16;17.50;99.90
23079;DHT22;11707;50.830;4.364;2022-10-16T17:23:42;17.40;99.90
23079;DHT22;11707;50.830;4.364;2022-10-16T17:26:14;17.30;99.90
23079;DHT22;11707;50.830;4.364;2022-10-16T17:28:42;17.40;99.90
23079;DHT22;11707;50.830;4.364;2022-10-16T17:31:14;17.50;99.90
23079;DHT22;11707;50.830;4.364;2022-10-16T17:33:41;17.50;99.90
23079;DHT22;11707;50.830;4.364;2022-10-16T17:36:07;17.50;99.90
23079;DHT22;11707;50.830;4.364;2022-10-16T17:38:34;17.50;99.90
23079;DHT22;11707;50.830;4.364;2022-10-16T17:41:16;17.30;99.90